sensor_id;sensor_type;location;lat;lon;timestamp;P1;durP1;ratioP1;P2;durP2;ratioP2
59790;SDS011;47431;51.640;5.554;2023-09-19T00:01:28;17.05;;;5.53;;
59790;SDS011;47431;51.640;5.554;2023-09-19T00:03:55;13.65;;;4.18;;
59790;SDS011;47431;51.640;5.554;2023-09-19T00:06:22;20.77;;;5.10;;
59790;SDS011;47431;51.640;5.554;2023-09-19T00:08:50;19.67;;;5.10;;
59790;SDS011;47431;51.640;5.554;2023-09-19T00:11:16;17.58;;;4.60;;
59790;SDS011;47431;51.640;5.554;2023-09-19T00:13:42;20.77;;;5.70;;
59790;SDS011;47431;51.640;5.554;2023-09-19T00:16:08;16.23;;;3.47;;
59790;SDS011;47431;51.640;5.554;2023-09-19T00:18:39;16.23;;;3.97;;
59790;SDS011;47431;51.640;5.554;2023-09-19T00:21:04;12.88;;;3.50;;
59790;SDS011;47431;51.640;5.554;2023-09-19T00:23:30;16.13;;;3.97;;
59790;SDS011;47431;51.640;5.554;2023-09-19T00:25:59;11.32;;;3.65;;
59790;SDS011;47431;51.640;5.554;2023-09-19T00:28:25;22.23;;;5.43;;
59790;SDS011;47431;51.640;5.554;2023-09-19T00:30:56;12.25;;;4.28;;
59790;SDS011;47431;51.640;5.554;2023-09-19T00:33:26;15.45;;;4.90;;
59790;SDS011;47431;51.640;5.554;2023-09-19T00:35:53;22.00;;;4.38;;
59790;SDS011;47431;51.640;5.554;2023-09-19T00:38:19;20.23;;;4.60;;
59790;SDS011;47431;51.640;5.554;2023-09-19T00:40:47;16.15;;;4.20;;
59790;SDS011;47431;51.640;5.554;2023-09-19T00:43:14;16.63;;;4.45;;
59790;SDS011;47431;51.640;5.554;2023-09-19T00:45:42;15.30;;;3.42;;
59790;SDS011;47431;51.640;5.554;2023-09-19T00:48:10;16.95;;;5.43;;
59790;SDS011;47431;51.640;5.554;2023-09-19T00:50:36;15.77;;;3.00;;
59790;SDS011;47431;51.640;5.554;2023-09-19T00:53:02;14.38;;;4.00;;
59790;SDS011;47431;51.640;5.554;2023-09-19T00:55:38;14.27;;;3.95;;
59790;SDS011;47431;51.640;5.554;2023-09-19T00:58:05;16.85;;;4.55;;
59790;SDS011;47431;51.640;5.554;2023-09-19T01:00:35;15.82;;;3.50;;
59790;SDS011;47431;51.640;5.554;2023-09-19T01:03:01;22.27;;;4.20;;
59790;SDS011;47431;51.640;5.554;2023-09-19T01:05:27;20.38;;;5.07;;
59790;SDS011;47431;51.640;5.554;2023-09-19T01:07:53;13.80;;;3.65;;
59790;SDS011;47431;51.640;5.554;2023-09-19T01:10:18;17.80;;;3.53;;
59790;SDS011;47431;51.640;5.554;2023-09-19T01:12:48;12.05;;;3.63;;
59790;SDS011;47431;51.640;5.554;2023-09-19T01:31:54;17.77;;;3.75;;
59790;SDS011;47431;51.640;5.554;2023-09-19T01:34:26;15.88;;;5.13;;
59790;SDS011;47431;51.640;5.554;2023-09-19T01:36:52;16.55;;;4.63;;
59790;SDS011;47431;51.640;5.554;2023-09-19T01:39:17;10.85;;;3.28;;
59790;SDS011;47431;51.640;5.554;2023-09-19T01:44:57;17.60;;;3.70;;
59790;SDS011;47431;51.640;5.554;2023-09-19T01:47:32;15.10;;;3.75;;
59790;SDS011;47431;51.640;5.554;2023-09-19T01:52:57;21.67;;;4.22;;
59790;SDS011;47431;51.640;5.554;2023-09-19T01:55:29;20.33;;;3.90;;
59790;SDS011;47431;51.640;5.554;2023-09-19T01:58:08;16.17;;;3.85;;
59790;SDS011;47431;51.640;5.554;2023-09-19T02:00:41;13.45;;;3.95;;
59790;SDS011;47431;51.640;5.554;2023-09-19T02:03:09;17.20;;;4.00;;
59790;SDS011;47431;51.640;5.554;2023-09-19T02:05:37;15.23;;;3.83;;
59790;SDS011;47431;51.640;5.554;2023-09-19T02:08:04;12.85;;;3.42;;
59790;SDS011;47431;51.640;5.554;2023-09-19T02:10:29;18.77;;;4.28;;
59790;SDS011;47431;51.640;5.554;2023-09-19T02:12:55;12.20;;;3.45;;
59790;SDS011;47431;51.640;5.554;2023-09-19T02:15:21;16.38;;;3.78;;
59790;SDS011;47431;51.640;5.554;2023-09-19T02:17:47;14.75;;;3.97;;
59790;SDS011;47431;51.640;5.554;2023-09-19T02:20:13;14.40;;;4.15;;
59790;SDS011;47431;51.640;5.554;2023-09-19T02:22:42;14.65;;;4.00;;
59790;SDS011;47431;51.640;5.554;2023-09-19T02:25:09;14.85;;;3.80;;
59790;SDS011;47431;51.640;5.554;2023-09-19T02:27:34;14.77;;;3.05;;
59790;SDS011;47431;51.640;5.554;2023-09-19T02:30:00;17.00;;;3.88;;
59790;SDS011;47431;51.640;5.554;2023-09-19T02:32:29;16.88;;;3.22;;
59790;SDS011;47431;51.640;5.554;2023-09-19T02:34:56;15.95;;;4.80;;
59790;SDS011;47431;51.640;5.554;2023-09-19T02:37:23;14.05;;;2.53;;
59790;SDS011;47431;51.640;5.554;2023-09-19T02:39:48;14.07;;;3.42;;
59790;SDS011;47431;51.640;5.554;2023-09-19T02:42:13;11.60;;;4.03;;
59790;SDS011;47431;51.640;5.554;2023-09-19T02:44:39;14.32;;;3.80;;
59790;SDS011;47431;51.640;5.554;2023-09-19T02:47:05;21.02;;;3.90;;
59790;SDS011;47431;51.640;5.554;2023-09-19T02:49:30;13.13;;;3.45;;
59790;SDS011;47431;51.640;5.554;2023-09-19T02:51:55;16.17;;;4.03;;
59790;SDS011;47431;51.640;5.554;2023-09-19T02:54:23;14.70;;;4.10;;
59790;SDS011;47431;51.640;5.554;2023-09-19T02:56:49;12.65;;;3.05;;
59790;SDS011;47431;51.640;5.554;2023-09-19T02:59:14;15.63;;;3.47;;
59790;SDS011;47431;51.640;5.554;2023-09-19T03:01:42;15.40;;;3.50;;
59790;SDS011;47431;51.640;5.554;2023-09-19T03:04:08;11.90;;;3.55;;
59790;SDS011;47431;51.640;5.554;2023-09-19T03:06:36;12.45;;;3.63;;
59790;SDS011;47431;51.640;5.554;2023-09-19T03:09:01;17.35;;;3.38;;
59790;SDS011;47431;51.640;5.554;2023-09-19T03:11:31;16.23;;;4.03;;
59790;SDS011;47431;51.640;5.554;2023-09-19T03:13:56;11.00;;;3.42;;
59790;SDS011;47431;51.640;5.554;2023-09-19T03:16:21;12.30;;;3.60;;
59790;SDS011;47431;51.640;5.554;2023-09-19T03:18:47;13.90;;;3.28;;
59790;SDS011;47431;51.640;5.554;2023-09-19T03:21:16;12.90;;;3.65;;
59790;SDS011;47431;51.640;5.554;2023-09-19T03:23:42;12.45;;;3.20;;
59790;SDS011;47431;51.640;5.554;2023-09-19T03:26:10;10.45;;;3.05;;
59790;SDS011;47431;51.640;5.554;2023-09-19T03:28:37;15.30;;;4.07;;
59790;SDS011;47431;51.640;5.554;2023-09-19T03:31:04;11.07;;;3.65;;
59790;SDS011;47431;51.640;5.554;2023-09-19T03:33:31;15.23;;;3.38;;
59790;SDS011;47431;51.640;5.554;2023-09-19T03:35:57;16.08;;;3.20;;
59790;SDS011;47431;51.640;5.554;2023-09-19T03:38:24;10.05;;;2.90;;
59790;SDS011;47431;51.640;5.554;2023-09-19T03:40:53;11.15;;;3.85;;
59790;SDS011;47431;51.640;5.554;2023-09-19T03:43:19;8.00;;;2.00;;
59790;SDS011;47431;51.640;5.554;2023-09-19T03:45:44;9.13;;;2.65;;
59790;SDS011;47431;51.640;5.554;2023-09-19T03:48:11;14.95;;;3.20;;
59790;SDS011;47431;51.640;5.554;2023-09-19T03:50:37;12.32;;;3.33;;
59790;SDS011;47431;51.640;5.554;2023-09-19T03:53:03;17.25;;;3.63;;
59790;SDS011;47431;51.640;5.554;2023-09-19T03:55:28;17.20;;;3.20;;
59790;SDS011;47431;51.640;5.554;2023-09-19T03:57:57;12.00;;;3.17;;
59790;SDS011;47431;51.640;5.554;2023-09-19T04:00:23;12.63;;;3.15;;
59790;SDS011;47431;51.640;5.554;2023-09-19T04:02:51;12.48;;;3.20;;
59790;SDS011;47431;51.640;5.554;2023-09-19T04:05:18;10.75;;;3.85;;
59790;SDS011;47431;51.640;5.554;2023-09-19T04:07:43;18.00;;;3.78;;
59790;SDS011;47431;51.640;5.554;2023-09-19T04:10:09;12.60;;;4.20;;
59790;SDS011;47431;51.640;5.554;2023-09-19T04:12:36;12.98;;;3.72;;
59790;SDS011;47431;51.640;5.554;2023-09-19T04:15:03;14.52;;;3.38;;
59790;SDS011;47431;51.640;5.554;2023-09-19T04:17:30;15.50;;;3.67;;
59790;SDS011;47431;51.640;5.554;2023-09-19T04:19:58;15.50;;;2.80;;
59790;SDS011;47431;51.640;5.554;2023-09-19T04:22:23;15.65;;;3.75;;
59790;SDS011;47431;51.640;5.554;2023-09-19T04:24:49;9.90;;;3.58;;
59790;SDS011;47431;51.640;5.554;2023-09-19T04:27:14;18.80;;;4.20;;
59790;SDS011;47431;51.640;5.554;2023-09-19T04:29:39;14.25;;;3.08;;
59790;SDS011;47431;51.640;5.554;2023-09-19T04:32:06;16.55;;;4.13;;
59790;SDS011;47431;51.640;5.554;2023-09-19T04:34:32;14.15;;;2.97;;
59790;SDS011;47431;51.640;5.554;2023-09-19T04:36:59;15.88;;;3.72;;
59790;SDS011;47431;51.640;5.554;2023-09-19T04:39:25;12.10;;;3.25;;
59790;SDS011;47431;51.640;5.554;2023-09-19T04:41:52;15.30;;;3.85;;
59790;SDS011;47431;51.640;5.554;2023-09-19T04:44:18;13.05;;;3.22;;
59790;SDS011;47431;51.640;5.554;2023-09-19T04:46:43;8.10;;;3.03;;
59790;SDS011;47431;51.640;5.554;2023-09-19T04:49:11;20.88;;;4.93;;
59790;SDS011;47431;51.640;5.554;2023-09-19T04:51:37;13.70;;;4.20;;
59790;SDS011;47431;51.640;5.554;2023-09-19T04:54:02;16.33;;;3.25;;
59790;SDS011;47431;51.640;5.554;2023-09-19T04:56:28;14.02;;;2.95;;
59790;SDS011;47431;51.640;5.554;2023-09-19T04:58:54;17.98;;;4.10;;
59790;SDS011;47431;51.640;5.554;2023-09-19T05:01:19;20.40;;;5.10;;
59790;SDS011;47431;51.640;5.554;2023-09-19T05:03:47;16.70;;;5.30;;
59790;SDS011;47431;51.640;5.554;2023-09-19T05:06:17;14.70;;;4.72;;
59790;SDS011;47431;51.640;5.554;2023-09-19T05:08:43;14.82;;;3.95;;
59790;SDS011;47431;51.640;5.554;2023-09-19T05:11:08;19.05;;;4.13;;
59790;SDS011;47431;51.640;5.554;2023-09-19T05:13:34;15.43;;;3.83;;
59790;SDS011;47431;51.640;5.554;2023-09-19T05:16:00;18.45;;;3.97;;
59790;SDS011;47431;51.640;5.554;2023-09-19T05:18:27;11.95;;;4.80;;
59790;SDS011;47431;51.640;5.554;2023-09-19T05:20:53;13.10;;;3.78;;
59790;SDS011;47431;51.640;5.554;2023-09-19T05:23:19;12.68;;;3.78;;
59790;SDS011;47431;51.640;5.554;2023-09-19T05:25:45;15.57;;;3.20;;
59790;SDS011;47431;51.640;5.554;2023-09-19T05:28:11;17.27;;;4.47;;
59790;SDS011;47431;51.640;5.554;2023-09-19T05:30:40;10.68;;;2.70;;
59790;SDS011;47431;51.640;5.554;2023-09-19T05:33:08;9.18;;;2.47;;
59790;SDS011;47431;51.640;5.554;2023-09-19T05:35:33;13.75;;;4.22;;
59790;SDS011;47431;51.640;5.554;2023-09-19T05:37:59;25.77;;;4.13;;
59790;SDS011;47431;51.640;5.554;2023-09-19T05:40:25;17.65;;;4.13;;
59790;SDS011;47431;51.640;5.554;2023-09-19T05:42:51;16.08;;;3.65;;
59790;SDS011;47431;51.640;5.554;2023-09-19T05:45:16;11.25;;;3.00;;
59790;SDS011;47431;51.640;5.554;2023-09-19T05:47:47;18.50;;;4.22;;
59790;SDS011;47431;51.640;5.554;2023-09-19T05:50:15;14.13;;;3.28;;
59790;SDS011;47431;51.640;5.554;2023-09-19T05:52:41;12.68;;;3.67;;
59790;SDS011;47431;51.640;5.554;2023-09-19T05:55:08;20.88;;;4.57;;
59790;SDS011;47431;51.640;5.554;2023-09-19T05:57:33;9.02;;;2.75;;
59790;SDS011;47431;51.640;5.554;2023-09-19T06:00:00;13.95;;;3.30;;
59790;SDS011;47431;51.640;5.554;2023-09-19T06:02:25;16.77;;;2.95;;
59790;SDS011;47431;51.640;5.554;2023-09-19T06:04:54;13.70;;;3.13;;
59790;SDS011;47431;51.640;5.554;2023-09-19T06:07:20;19.88;;;3.28;;
59790;SDS011;47431;51.640;5.554;2023-09-19T06:09:51;13.27;;;4.05;;
59790;SDS011;47431;51.640;5.554;2023-09-19T06:12:18;19.45;;;4.35;;
59790;SDS011;47431;51.640;5.554;2023-09-19T06:14:44;18.98;;;5.57;;
59790;SDS011;47431;51.640;5.554;2023-09-19T06:17:09;25.88;;;5.05;;
59790;SDS011;47431;51.640;5.554;2023-09-19T06:19:35;14.93;;;3.45;;
59790;SDS011;47431;51.640;5.554;2023-09-19T06:22:01;16.58;;;3.83;;
59790;SDS011;47431;51.640;5.554;2023-09-19T06:24:26;18.42;;;3.88;;
59790;SDS011;47431;51.640;5.554;2023-09-19T06:26:52;13.38;;;3.20;;
59790;SDS011;47431;51.640;5.554;2023-09-19T06:29:17;11.60;;;3.83;;
59790;SDS011;47431;51.640;5.554;2023-09-19T06:31:43;16.83;;;4.45;;
59790;SDS011;47431;51.640;5.554;2023-09-19T06:34:09;12.13;;;3.28;;
59790;SDS011;47431;51.640;5.554;2023-09-19T06:36:35;13.32;;;3.50;;
59790;SDS011;47431;51.640;5.554;2023-09-19T06:39:01;15.82;;;3.58;;
59790;SDS011;47431;51.640;5.554;2023-09-19T06:41:29;13.20;;;3.83;;
59790;SDS011;47431;51.640;5.554;2023-09-19T06:43:55;20.45;;;5.05;;
59790;SDS011;47431;51.640;5.554;2023-09-19T06:46:20;17.85;;;4.43;;
59790;SDS011;47431;51.640;5.554;2023-09-19T06:48:45;13.27;;;4.45;;
59790;SDS011;47431;51.640;5.554;2023-09-19T06:51:12;20.88;;;4.65;;
59790;SDS011;47431;51.640;5.554;2023-09-19T06:53:40;12.82;;;4.20;;
59790;SDS011;47431;51.640;5.554;2023-09-19T06:56:06;19.75;;;3.35;;
59790;SDS011;47431;51.640;5.554;2023-09-19T06:58:31;15.07;;;4.65;;
59790;SDS011;47431;51.640;5.554;2023-09-19T07:00:57;16.05;;;3.13;;
59790;SDS011;47431;51.640;5.554;2023-09-19T07:03:22;16.48;;;4.75;;
59790;SDS011;47431;51.640;5.554;2023-09-19T07:05:51;17.17;;;4.00;;
59790;SDS011;47431;51.640;5.554;2023-09-19T07:08:17;24.05;;;5.88;;
59790;SDS011;47431;51.640;5.554;2023-09-19T07:10:43;18.23;;;4.43;;
59790;SDS011;47431;51.640;5.554;2023-09-19T07:13:13;16.65;;;3.95;;
59790;SDS011;47431;51.640;5.554;2023-09-19T07:15:41;15.48;;;3.45;;
59790;SDS011;47431;51.640;5.554;2023-09-19T07:18:11;17.13;;;4.43;;
59790;SDS011;47431;51.640;5.554;2023-09-19T07:20:39;16.02;;;4.35;;
59790;SDS011;47431;51.640;5.554;2023-09-19T07:23:10;17.75;;;3.95;;
59790;SDS011;47431;51.640;5.554;2023-09-19T07:25:36;15.20;;;3.65;;
59790;SDS011;47431;51.640;5.554;2023-09-19T07:28:01;17.83;;;4.85;;
59790;SDS011;47431;51.640;5.554;2023-09-19T07:30:27;19.85;;;4.68;;
59790;SDS011;47431;51.640;5.554;2023-09-19T07:32:53;19.70;;;4.97;;
59790;SDS011;47431;51.640;5.554;2023-09-19T07:35:18;10.02;;;2.85;;
59790;SDS011;47431;51.640;5.554;2023-09-19T07:37:45;14.43;;;4.00;;
59790;SDS011;47431;51.640;5.554;2023-09-19T07:40:14;19.38;;;5.90;;
59790;SDS011;47431;51.640;5.554;2023-09-19T07:42:44;17.20;;;4.93;;
59790;SDS011;47431;51.640;5.554;2023-09-19T07:45:12;13.57;;;3.47;;
59790;SDS011;47431;51.640;5.554;2023-09-19T07:47:40;19.27;;;5.43;;
59790;SDS011;47431;51.640;5.554;2023-09-19T07:50:09;15.52;;;3.92;;
59790;SDS011;47431;51.640;5.554;2023-09-19T07:52:34;21.25;;;4.50;;
59790;SDS011;47431;51.640;5.554;2023-09-19T07:55:00;15.43;;;4.70;;
59790;SDS011;47431;51.640;5.554;2023-09-19T07:57:26;22.35;;;5.03;;
59790;SDS011;47431;51.640;5.554;2023-09-19T07:59:53;13.05;;;3.55;;
59790;SDS011;47431;51.640;5.554;2023-09-19T08:02:19;16.85;;;4.35;;
59790;SDS011;47431;51.640;5.554;2023-09-19T08:04:44;20.85;;;4.72;;
59790;SDS011;47431;51.640;5.554;2023-09-19T08:07:14;17.50;;;4.57;;
59790;SDS011;47431;51.640;5.554;2023-09-19T08:09:39;13.73;;;4.30;;
59790;SDS011;47431;51.640;5.554;2023-09-19T08:12:05;17.77;;;4.53;;
59790;SDS011;47431;51.640;5.554;2023-09-19T08:14:33;16.25;;;4.38;;
59790;SDS011;47431;51.640;5.554;2023-09-19T08:16:59;14.00;;;3.90;;
59790;SDS011;47431;51.640;5.554;2023-09-19T08:19:25;12.25;;;4.00;;
59790;SDS011;47431;51.640;5.554;2023-09-19T08:21:55;13.27;;;3.50;;
59790;SDS011;47431;51.640;5.554;2023-09-19T08:24:23;14.93;;;3.88;;
59790;SDS011;47431;51.640;5.554;2023-09-19T08:26:50;11.00;;;2.72;;
59790;SDS011;47431;51.640;5.554;2023-09-19T08:29:16;9.68;;;2.83;;
59790;SDS011;47431;51.640;5.554;2023-09-19T08:31:42;17.92;;;3.35;;
59790;SDS011;47431;51.640;5.554;2023-09-19T08:34:08;14.13;;;4.70;;
59790;SDS011;47431;51.640;5.554;2023-09-19T08:36:33;15.65;;;4.13;;
59790;SDS011;47431;51.640;5.554;2023-09-19T08:39:00;14.98;;;3.95;;
59790;SDS011;47431;51.640;5.554;2023-09-19T08:41:25;11.25;;;3.60;;
59790;SDS011;47431;51.640;5.554;2023-09-19T08:43:51;15.90;;;4.30;;
59790;SDS011;47431;51.640;5.554;2023-09-19T08:46:17;12.93;;;3.55;;
59790;SDS011;47431;51.640;5.554;2023-09-19T08:51:53;12.80;;;4.05;;
59790;SDS011;47431;51.640;5.554;2023-09-19T08:54:28;18.67;;;4.15;;
59790;SDS011;47431;51.640;5.554;2023-09-19T08:57:04;12.35;;;3.17;;
59790;SDS011;47431;51.640;5.554;2023-09-19T08:59:36;11.50;;;3.67;;
59790;SDS011;47431;51.640;5.554;2023-09-19T09:02:06;14.38;;;3.60;;
59790;SDS011;47431;51.640;5.554;2023-09-19T09:07:03;13.18;;;2.80;;
59790;SDS011;47431;51.640;5.554;2023-09-19T09:09:29;15.80;;;5.00;;
59790;SDS011;47431;51.640;5.554;2023-09-19T09:11:55;16.58;;;4.45;;
59790;SDS011;47431;51.640;5.554;2023-09-19T09:14:21;24.40;;;5.45;;
59790;SDS011;47431;51.640;5.554;2023-09-19T09:16:48;15.65;;;4.25;;
59790;SDS011;47431;51.640;5.554;2023-09-19T09:19:14;17.02;;;4.53;;
59790;SDS011;47431;51.640;5.554;2023-09-19T09:21:41;16.05;;;3.50;;
59790;SDS011;47431;51.640;5.554;2023-09-19T09:26:51;13.55;;;3.17;;
59790;SDS011;47431;51.640;5.554;2023-09-19T09:29:23;16.48;;;3.10;;
59790;SDS011;47431;51.640;5.554;2023-09-19T09:32:26;17.73;;;5.25;;
59790;SDS011;47431;51.640;5.554;2023-09-19T09:37:21;11.75;;;3.47;;
59790;SDS011;47431;51.640;5.554;2023-09-19T09:39:57;11.30;;;3.03;;
59790;SDS011;47431;51.640;5.554;2023-09-19T09:47:53;14.02;;;4.65;;
59790;SDS011;47431;51.640;5.554;2023-09-19T09:53:01;13.85;;;4.30;;
59790;SDS011;47431;51.640;5.554;2023-09-19T09:56:17;8.98;;;2.80;;
59790;SDS011;47431;51.640;5.554;2023-09-19T09:58:38;16.88;;;2.42;;
59790;SDS011;47431;51.640;5.554;2023-09-19T10:01:15;15.80;;;3.83;;
59790;SDS011;47431;51.640;5.554;2023-09-19T10:03:41;12.70;;;3.95;;
59790;SDS011;47431;51.640;5.554;2023-09-19T10:06:15;14.25;;;3.60;;
59790;SDS011;47431;51.640;5.554;2023-09-19T10:09:24;12.77;;;3.20;;
59790;SDS011;47431;51.640;5.554;2023-09-19T10:11:48;9.75;;;2.72;;
59790;SDS011;47431;51.640;5.554;2023-09-19T10:14:27;10.73;;;2.85;;
59790;SDS011;47431;51.640;5.554;2023-09-19T10:16:56;20.48;;;4.28;;
59790;SDS011;47431;51.640;5.554;2023-09-19T10:21:55;13.50;;;4.15;;
59790;SDS011;47431;51.640;5.554;2023-09-19T10:24:23;10.77;;;3.17;;
59790;SDS011;47431;51.640;5.554;2023-09-19T10:26:51;10.80;;;3.15;;
59790;SDS011;47431;51.640;5.554;2023-09-19T10:29:19;9.65;;;4.00;;
59790;SDS011;47431;51.640;5.554;2023-09-19T10:31:49;13.95;;;4.38;;
59790;SDS011;47431;51.640;5.554;2023-09-19T10:34:18;12.02;;;2.25;;
59790;SDS011;47431;51.640;5.554;2023-09-19T10:36:45;9.70;;;2.83;;
59790;SDS011;47431;51.640;5.554;2023-09-19T10:39:15;11.15;;;3.40;;
59790;SDS011;47431;51.640;5.554;2023-09-19T10:41:50;8.65;;;3.15;;
59790;SDS011;47431;51.640;5.554;2023-09-19T10:44:21;10.05;;;2.40;;
59790;SDS011;47431;51.640;5.554;2023-09-19T10:46:53;11.23;;;3.40;;
59790;SDS011;47431;51.640;5.554;2023-09-19T10:49:22;12.15;;;3.38;;
59790;SDS011;47431;51.640;5.554;2023-09-19T10:51:53;16.10;;;3.35;;
59790;SDS011;47431;51.640;5.554;2023-09-19T10:54:26;12.20;;;3.05;;
59790;SDS011;47431;51.640;5.554;2023-09-19T10:57:00;13.98;;;3.15;;
59790;SDS011;47431;51.640;5.554;2023-09-19T10:59:30;9.90;;;2.50;;
59790;SDS011;47431;51.640;5.554;2023-09-19T11:01:59;9.93;;;3.03;;
59790;SDS011;47431;51.640;5.554;2023-09-19T11:04:43;13.40;;;3.35;;
59790;SDS011;47431;51.640;5.554;2023-09-19T11:07:12;15.75;;;4.57;;
59790;SDS011;47431;51.640;5.554;2023-09-19T11:15:06;10.50;;;3.03;;
59790;SDS011;47431;51.640;5.554;2023-09-19T11:17:34;12.57;;;3.22;;
59790;SDS011;47431;51.640;5.554;2023-09-19T11:30:36;9.00;;;2.95;;
59790;SDS011;47431;51.640;5.554;2023-09-19T11:39:04;11.23;;;2.92;;
59790;SDS011;47431;51.640;5.554;2023-09-19T11:41:37;9.63;;;3.53;;
59790;SDS011;47431;51.640;5.554;2023-09-19T11:49:16;8.95;;;2.63;;
59790;SDS011;47431;51.640;5.554;2023-09-19T11:51:46;8.63;;;1.95;;
59790;SDS011;47431;51.640;5.554;2023-09-19T11:54:15;7.30;;;2.83;;
59790;SDS011;47431;51.640;5.554;2023-09-19T11:56:43;10.38;;;2.67;;
59790;SDS011;47431;51.640;5.554;2023-09-19T11:59:10;13.45;;;2.10;;
59790;SDS011;47431;51.640;5.554;2023-09-19T12:01:37;11.07;;;2.75;;
59790;SDS011;47431;51.640;5.554;2023-09-19T12:06:36;12.07;;;3.30;;
59790;SDS011;47431;51.640;5.554;2023-09-19T12:11:40;8.90;;;1.80;;
59790;SDS011;47431;51.640;5.554;2023-09-19T12:14:07;10.10;;;2.08;;
59790;SDS011;47431;51.640;5.554;2023-09-19T12:16:33;9.40;;;2.83;;
59790;SDS011;47431;51.640;5.554;2023-09-19T12:18:59;6.65;;;1.58;;
59790;SDS011;47431;51.640;5.554;2023-09-19T12:21:43;13.18;;;2.38;;
59790;SDS011;47431;51.640;5.554;2023-09-19T12:24:12;8.20;;;2.40;;
59790;SDS011;47431;51.640;5.554;2023-09-19T12:26:44;9.35;;;2.08;;
59790;SDS011;47431;51.640;5.554;2023-09-19T12:29:16;17.65;;;2.60;;
59790;SDS011;47431;51.640;5.554;2023-09-19T12:31:52;9.25;;;2.13;;
59790;SDS011;47431;51.640;5.554;2023-09-19T12:34:24;8.10;;;1.70;;
59790;SDS011;47431;51.640;5.554;2023-09-19T12:37:06;9.65;;;3.45;;
59790;SDS011;47431;51.640;5.554;2023-09-19T12:42:14;8.52;;;2.42;;
59790;SDS011;47431;51.640;5.554;2023-09-19T12:44:42;7.80;;;1.92;;
59790;SDS011;47431;51.640;5.554;2023-09-19T12:47:13;8.50;;;1.77;;
59790;SDS011;47431;51.640;5.554;2023-09-19T12:52:48;9.30;;;2.22;;
59790;SDS011;47431;51.640;5.554;2023-09-19T12:58:01;10.82;;;1.52;;
59790;SDS011;47431;51.640;5.554;2023-09-19T13:00:35;10.00;;;2.17;;
59790;SDS011;47431;51.640;5.554;2023-09-19T13:05:58;5.22;;;1.60;;
59790;SDS011;47431;51.640;5.554;2023-09-19T13:11:07;15.07;;;2.88;;
59790;SDS011;47431;51.640;5.554;2023-09-19T13:13:35;10.48;;;2.97;;
59790;SDS011;47431;51.640;5.554;2023-09-19T13:16:02;9.38;;;1.75;;
59790;SDS011;47431;51.640;5.554;2023-09-19T13:18:41;5.65;;;1.83;;
59790;SDS011;47431;51.640;5.554;2023-09-19T13:21:08;11.93;;;1.83;;
59790;SDS011;47431;51.640;5.554;2023-09-19T13:23:40;8.13;;;1.88;;
59790;SDS011;47431;51.640;5.554;2023-09-19T13:26:08;5.32;;;2.08;;
59790;SDS011;47431;51.640;5.554;2023-09-19T13:28:34;21.98;;;3.08;;
59790;SDS011;47431;51.640;5.554;2023-09-19T13:30:59;12.18;;;3.28;;
59790;SDS011;47431;51.640;5.554;2023-09-19T13:33:25;7.43;;;1.50;;
59790;SDS011;47431;51.640;5.554;2023-09-19T13:35:51;19.88;;;2.75;;
59790;SDS011;47431;51.640;5.554;2023-09-19T13:43:20;7.93;;;1.58;;
59790;SDS011;47431;51.640;5.554;2023-09-19T13:45:47;11.32;;;2.42;;
59790;SDS011;47431;51.640;5.554;2023-09-19T13:48:12;10.15;;;1.77;;
59790;SDS011;47431;51.640;5.554;2023-09-19T13:50:37;7.53;;;2.10;;
59790;SDS011;47431;51.640;5.554;2023-09-19T13:53:07;7.72;;;1.98;;
59790;SDS011;47431;51.640;5.554;2023-09-19T13:55:33;5.82;;;1.77;;
59790;SDS011;47431;51.640;5.554;2023-09-19T13:57:58;6.50;;;1.88;;
59790;SDS011;47431;51.640;5.554;2023-09-19T14:00:25;8.57;;;1.85;;
59790;SDS011;47431;51.640;5.554;2023-09-19T14:02:52;6.40;;;1.83;;
59790;SDS011;47431;51.640;5.554;2023-09-19T14:05:21;10.23;;;2.75;;
59790;SDS011;47431;51.640;5.554;2023-09-19T14:07:46;8.63;;;2.17;;
59790;SDS011;47431;51.640;5.554;2023-09-19T14:10:12;16.05;;;3.20;;
59790;SDS011;47431;51.640;5.554;2023-09-19T14:12:37;21.08;;;3.67;;
59790;SDS011;47431;51.640;5.554;2023-09-19T14:15:11;17.92;;;3.63;;
59790;SDS011;47431;51.640;5.554;2023-09-19T14:17:40;10.27;;;2.13;;
59790;SDS011;47431;51.640;5.554;2023-09-19T14:20:10;11.07;;;1.45;;
59790;SDS011;47431;51.640;5.554;2023-09-19T14:22:42;8.82;;;2.13;;
59790;SDS011;47431;51.640;5.554;2023-09-19T14:25:07;12.45;;;2.40;;
59790;SDS011;47431;51.640;5.554;2023-09-19T14:27:37;6.38;;;1.83;;
59790;SDS011;47431;51.640;5.554;2023-09-19T14:30:02;8.10;;;2.22;;
59790;SDS011;47431;51.640;5.554;2023-09-19T14:32:29;19.70;;;2.75;;
59790;SDS011;47431;51.640;5.554;2023-09-19T14:34:54;9.15;;;1.83;;
59790;SDS011;47431;51.640;5.554;2023-09-19T14:44:58;5.65;;;1.30;;
59790;SDS011;47431;51.640;5.554;2023-09-19T14:47:23;7.35;;;2.17;;
59790;SDS011;47431;51.640;5.554;2023-09-19T14:49:49;8.30;;;2.00;;
59790;SDS011;47431;51.640;5.554;2023-09-19T14:52:14;9.30;;;1.83;;
59790;SDS011;47431;51.640;5.554;2023-09-19T14:54:40;4.55;;;1.48;;
59790;SDS011;47431;51.640;5.554;2023-09-19T15:02:22;13.07;;;2.67;;
59790;SDS011;47431;51.640;5.554;2023-09-19T15:04:47;9.73;;;3.33;;
59790;SDS011;47431;51.640;5.554;2023-09-19T15:07:13;5.07;;;1.50;;
59790;SDS011;47431;51.640;5.554;2023-09-19T15:09:40;5.88;;;1.48;;
59790;SDS011;47431;51.640;5.554;2023-09-19T15:12:06;8.95;;;2.55;;
59790;SDS011;47431;51.640;5.554;2023-09-19T15:14:32;6.22;;;2.20;;
59790;SDS011;47431;51.640;5.554;2023-09-19T15:16:57;6.85;;;1.40;;
59790;SDS011;47431;51.640;5.554;2023-09-19T15:19:22;7.32;;;2.28;;
59790;SDS011;47431;51.640;5.554;2023-09-19T15:21:48;5.97;;;1.55;;
59790;SDS011;47431;51.640;5.554;2023-09-19T15:24:14;5.43;;;1.67;;
59790;SDS011;47431;51.640;5.554;2023-09-19T15:26:40;7.47;;;1.67;;
59790;SDS011;47431;51.640;5.554;2023-09-19T15:29:05;5.68;;;1.85;;
59790;SDS011;47431;51.640;5.554;2023-09-19T15:31:31;14.25;;;4.43;;
59790;SDS011;47431;51.640;5.554;2023-09-19T15:33:57;5.53;;;1.45;;
59790;SDS011;47431;51.640;5.554;2023-09-19T15:36:22;5.75;;;2.03;;
59790;SDS011;47431;51.640;5.554;2023-09-19T15:38:58;7.85;;;1.77;;
59790;SDS011;47431;51.640;5.554;2023-09-19T15:41:35;5.28;;;1.27;;
59790;SDS011;47431;51.640;5.554;2023-09-19T15:44:05;7.95;;;1.58;;
59790;SDS011;47431;51.640;5.554;2023-09-19T15:46:36;6.63;;;1.42;;
59790;SDS011;47431;51.640;5.554;2023-09-19T15:49:02;8.30;;;1.58;;
59790;SDS011;47431;51.640;5.554;2023-09-19T15:51:28;10.02;;;2.22;;
59790;SDS011;47431;51.640;5.554;2023-09-19T15:53:54;7.28;;;1.98;;
59790;SDS011;47431;51.640;5.554;2023-09-19T15:56:25;9.02;;;1.60;;
59790;SDS011;47431;51.640;5.554;2023-09-19T15:58:52;7.18;;;2.50;;
59790;SDS011;47431;51.640;5.554;2023-09-19T16:01:19;9.63;;;1.92;;
59790;SDS011;47431;51.640;5.554;2023-09-19T16:03:49;10.45;;;2.92;;
59790;SDS011;47431;51.640;5.554;2023-09-19T16:06:29;8.73;;;2.38;;
59790;SDS011;47431;51.640;5.554;2023-09-19T16:08:59;10.63;;;2.47;;
59790;SDS011;47431;51.640;5.554;2023-09-19T16:11:26;7.22;;;1.80;;
59790;SDS011;47431;51.640;5.554;2023-09-19T16:13:52;8.77;;;1.65;;
59790;SDS011;47431;51.640;5.554;2023-09-19T16:16:19;8.00;;;1.80;;
59790;SDS011;47431;51.640;5.554;2023-09-19T16:18:51;7.63;;;2.03;;
59790;SDS011;47431;51.640;5.554;2023-09-19T16:21:25;8.68;;;2.25;;
59790;SDS011;47431;51.640;5.554;2023-09-19T16:23:52;7.18;;;2.38;;
59790;SDS011;47431;51.640;5.554;2023-09-19T16:26:19;6.07;;;1.65;;
59790;SDS011;47431;51.640;5.554;2023-09-19T16:28:45;7.00;;;1.52;;
59790;SDS011;47431;51.640;5.554;2023-09-19T16:31:11;9.63;;;1.48;;